createdAt,value
2019-01-19T00:00:42.709Z,1.99
2019-01-19T00:03:35.298Z,1.96
2019-01-19T00:06:36.178Z,1.96
2019-01-19T00:09:25.426Z,1.96
2019-01-19T00:12:20.363Z,1.94
2019-01-19T00:14:50.510Z,1.91
2019-01-19T00:17:36.643Z,1.88
2019-01-19T00:20:31.376Z,1.88
2019-01-19T00:23:26.782Z,1.86
2019-01-19T00:26:29.525Z,1.85
2019-01-19T00:29:15.730Z,1.86
2019-01-19T00:32:11.033Z,1.89
2019-01-19T00:35:09.128Z,1.93
2019-01-19T00:37:43.401Z,1.92
2019-01-19T00:40:41.318Z,1.86
2019-01-19T00:43:11.387Z,1.81
2019-01-19T00:46:12.859Z,1.78
2019-01-19T00:48:55.651Z,1.75
2019-01-19T00:51:56.859Z,1.68
2019-01-19T00:54:31.139Z,1.63
2019-01-19T00:57:11.115Z,1.56
2019-01-19T00:59:41.203Z,1.49
2019-01-19T01:02:41.277Z,1.46
2019-01-19T01:05:25.466Z,1.46
2019-01-19T01:08:24.891Z,1.49
2019-01-19T01:11:05.055Z,1.53
2019-01-19T01:13:48.242Z,1.56
2019-01-19T01:16:25.474Z,1.59
2019-01-19T01:19:20.139Z,1.62
2019-01-19T01:22:15.127Z,1.66
2019-01-19T01:25:07.608Z,1.69
2019-01-19T01:27:42.242Z,1.70
2019-01-19T01:30:28.876Z,1.71
2019-01-19T01:33:15.006Z,1.75
2019-01-19T01:36:13.436Z,1.76
2019-01-19T01:39:10.010Z,1.77
2019-01-19T01:41:50.128Z,1.80
2019-01-19T01:44:43.910Z,1.82
2019-01-19T01:48:08.099Z,1.83
2019-01-19T01:51:05.683Z,1.85
2019-01-19T01:53:45.876Z,1.88
2019-01-19T01:56:15.442Z,1.87
2019-01-19T01:59:04.837Z,1.90
2019-01-19T02:01:47.194Z,1.90
2019-01-19T02:04:36.820Z,1.88
2019-01-19T02:07:29.045Z,1.88
2019-01-19T02:10:25.938Z,1.86
2019-01-19T02:13:23.983Z,1.86
2019-01-19T02:16:16.611Z,1.90
2019-01-19T02:19:08.520Z,1.95
2019-01-19T02:21:57.808Z,1.95
2019-01-19T02:25:02.373Z,1.91
2019-01-19T02:27:54.483Z,1.88
2019-01-19T02:31:00.551Z,1.88
2019-01-19T02:33:40.421Z,1.88
2019-01-19T02:36:28.859Z,1.86
2019-01-19T02:39:14.891Z,1.84
2019-01-19T02:42:07.370Z,1.82
2019-01-19T02:44:44.451Z,1.78
2019-01-19T02:47:48.613Z,1.74
2019-01-19T02:50:25.603Z,1.70
2019-01-19T02:53:08.560Z,1.65
2019-01-19T02:55:48.889Z,1.60
2019-01-19T02:58:26.076Z,1.58
2019-01-19T03:01:30.293Z,1.58
2019-01-19T03:04:10.306Z,1.58
2019-01-19T03:07:24.144Z,1.55
2019-01-19T03:10:13.586Z,1.51
2019-01-19T03:13:05.655Z,1.49
2019-01-19T03:15:55.133Z,1.45
2019-01-19T03:18:56.503Z,1.35
2019-01-19T03:21:53.316Z,1.26
2019-01-19T03:24:43.775Z,1.13
2019-01-19T03:27:34.461Z,0.95
2019-01-19T03:30:23.315Z,0.82
2019-01-19T03:33:11.764Z,0.74
2019-01-19T03:35:48.482Z,0.68
2019-01-19T03:38:44.330Z,0.63
2019-01-19T03:41:40.223Z,0.56
2019-01-19T03:44:25.871Z,0.43
2019-01-19T03:47:16.550Z,0.31
2019-01-19T03:50:30.581Z,0.22
2019-01-19T03:53:29.057Z,0.18
2019-01-19T03:56:15.090Z,0.27
2019-01-19T03:58:55.141Z,0.43
2019-01-19T04:01:34.546Z,0.54
2019-01-19T04:04:30.009Z,0.63
2019-01-19T04:07:22.327Z,0.70
2019-01-19T04:10:20.508Z,0.81
2019-01-19T04:13:18.371Z,0.90
2019-01-19T04:16:01.334Z,1.01
2019-01-19T04:18:35.565Z,1.12
2019-01-19T04:21:24.398Z,1.20
2019-01-19T04:23:59.294Z,1.27
2019-01-19T04:26:33.308Z,1.35
2019-01-19T04:29:02.818Z,1.40
2019-01-19T04:31:32.459Z,1.44
2019-01-19T04:34:02.537Z,1.45
2019-01-19T04:36:32.202Z,1.47
2019-01-19T04:39:03.381Z,1.48
2019-01-19T04:41:32.875Z,1.45
2019-01-19T04:44:02.391Z,1.41
2019-01-19T04:46:31.895Z,1.38
2019-01-19T04:49:01.710Z,1.38
2019-01-19T04:51:31.214Z,1.41
2019-01-19T04:54:00.718Z,1.45
2019-01-19T04:56:30.237Z,1.51
2019-01-19T04:58:59.735Z,1.57
2019-01-19T05:01:29.400Z,1.60
2019-01-19T05:03:58.906Z,1.62
2019-01-19T05:06:30.630Z,1.63
2019-01-19T05:08:59.975Z,1.60
2019-01-19T05:11:29.482Z,1.57
2019-01-19T05:13:59.018Z,1.50
2019-01-19T05:16:28.565Z,1.39
2019-01-19T05:18:58.021Z,1.26
2019-01-19T05:21:27.927Z,1.11
2019-01-19T05:23:57.521Z,0.96
2019-01-19T05:26:27.032Z,0.80
2019-01-19T05:28:56.551Z,0.63
2019-01-19T05:31:26.159Z,0.46
2019-01-19T05:33:55.677Z,0.32
2019-01-19T05:36:25.190Z,0.20
2019-01-19T05:38:54.708Z,0.08
2019-01-19T05:41:24.219Z,-0.05
2019-01-19T05:43:53.755Z,-0.17
2019-01-19T05:46:23.275Z,-0.29
2019-01-19T05:48:52.807Z,-0.41
2019-01-19T05:51:22.322Z,-0.52
2019-01-19T05:53:51.840Z,-0.59
2019-01-19T05:56:21.370Z,-0.65
2019-01-19T05:58:50.890Z,-0.71
2019-01-19T06:01:21.198Z,-0.77
2019-01-19T06:03:50.723Z,-0.84
2019-01-19T06:06:20.624Z,-0.90
2019-01-19T06:08:50.145Z,-0.96
2019-01-19T06:11:19.714Z,-1.00
2019-01-19T06:13:49.183Z,-1.04
2019-01-19T06:16:18.712Z,-1.07
2019-01-19T06:18:48.916Z,-1.05
2019-01-19T06:21:19.599Z,-0.97
2019-01-19T06:23:49.147Z,-0.87
2019-01-19T06:26:18.640Z,-0.74
2019-01-19T06:28:48.157Z,-0.62
2019-01-19T06:31:17.692Z,-0.53
2019-01-19T06:33:47.202Z,-0.42
2019-01-19T06:36:16.736Z,-0.29
2019-01-19T06:38:46.270Z,-0.20
2019-01-19T06:41:16.201Z,-0.12
2019-01-19T06:43:45.706Z,-0.07
2019-01-19T06:46:15.230Z,0.00
2019-01-19T06:48:44.769Z,0.06
2019-01-19T06:51:14.275Z,0.11
2019-01-19T06:53:43.871Z,0.18
2019-01-19T06:56:13.381Z,0.24
2019-01-19T06:58:42.909Z,0.29
2019-01-19T07:01:14.080Z,0.30
2019-01-19T07:03:43.612Z,0.25
2019-01-19T07:06:13.128Z,0.18
2019-01-19T07:08:42.641Z,0.13
2019-01-19T07:11:12.169Z,0.04
2019-01-19T07:13:41.692Z,-0.07
2019-01-19T07:16:11.297Z,-0.19
2019-01-19T07:18:40.816Z,-0.29
2019-01-19T07:21:10.440Z,-0.40
2019-01-19T07:23:39.962Z,-0.47
2019-01-19T07:26:09.474Z,-0.56
2019-01-19T07:28:39.580Z,-0.60
2019-01-19T07:31:09.108Z,-0.63
2019-01-19T07:33:38.610Z,-0.65
2019-01-19T07:36:08.156Z,-0.63
2019-01-19T07:38:37.681Z,-0.60
2019-01-19T07:41:07.202Z,-0.58
2019-01-19T07:43:36.808Z,-0.50
2019-01-19T07:46:08.123Z,-0.41
2019-01-19T07:48:37.644Z,-0.31
2019-01-19T07:51:07.179Z,-0.12
2019-01-19T07:53:36.688Z,0.11
2019-01-19T07:56:06.364Z,0.34
2019-01-19T07:58:35.898Z,0.51
2019-01-19T08:01:05.574Z,0.59
2019-01-19T08:03:35.363Z,0.64
2019-01-19T08:06:04.886Z,0.66
2019-01-19T08:08:34.410Z,0.66
2019-01-19T08:11:03.976Z,0.64
2019-01-19T08:13:33.495Z,0.67
2019-01-19T08:16:03.148Z,0.73
2019-01-19T08:18:32.654Z,0.89
2019-01-19T08:21:02.160Z,1.08
2019-01-19T08:23:31.691Z,1.22
2019-01-19T08:26:01.203Z,1.42
2019-01-19T08:28:31.077Z,1.70
2019-01-19T08:31:00.591Z,2.03
2019-01-19T08:33:30.097Z,2.40
2019-01-19T08:35:59.927Z,2.79
2019-01-19T08:38:29.493Z,3.19
2019-01-19T08:40:59.025Z,3.55
2019-01-19T08:43:30.182Z,3.96
2019-01-19T08:45:59.699Z,4.42
2019-01-19T08:48:29.536Z,4.97
2019-01-19T08:50:59.033Z,5.56
2019-01-19T08:53:28.565Z,6.16
2019-01-19T08:55:58.099Z,6.70
2019-01-19T08:58:27.715Z,7.23
2019-01-19T09:00:57.235Z,7.73
2019-01-19T09:03:26.747Z,8.22
2019-01-19T09:05:56.541Z,8.82
2019-01-19T09:08:26.062Z,9.42
2019-01-19T09:10:55.579Z,9.99
2019-01-19T09:13:25.187Z,10.59
2019-01-19T09:15:56.419Z,11.00
2019-01-19T09:18:25.956Z,11.30
2019-01-19T09:20:55.478Z,11.55
2019-01-19T09:23:26.648Z,11.79
2019-01-19T09:25:56.180Z,11.71
2019-01-19T09:28:25.708Z,11.72
2019-01-19T09:30:55.321Z,11.86
2019-01-19T09:33:24.832Z,12.13
2019-01-19T09:35:54.395Z,12.31
2019-01-19T09:38:23.899Z,12.26
2019-01-19T09:40:53.418Z,12.16
2019-01-19T09:43:22.951Z,12.13
2019-01-19T09:45:52.467Z,12.08
2019-01-19T09:48:22.079Z,12.16
2019-01-19T09:50:51.664Z,12.23
2019-01-19T09:53:21.202Z,12.32
2019-01-19T09:55:50.745Z,12.30
2019-01-19T09:58:20.265Z,12.32
2019-01-19T10:00:49.795Z,12.22
2019-01-19T10:03:19.321Z,12.03
2019-01-19T10:05:48.931Z,11.85
2019-01-19T10:08:18.483Z,11.66
2019-01-19T10:10:48.290Z,11.35
2019-01-19T10:13:17.876Z,11.10
2019-01-19T10:15:47.423Z,10.84
2019-01-19T10:18:17.539Z,10.71
2019-01-19T10:20:47.064Z,10.62
2019-01-19T10:23:16.611Z,10.55
2019-01-19T10:25:46.125Z,10.44
2019-01-19T10:28:15.664Z,10.37
2019-01-19T10:30:45.421Z,10.20
2019-01-19T10:33:14.941Z,9.99
2019-01-19T10:35:44.466Z,9.87
2019-01-19T10:38:13.985Z,9.79
2019-01-19T10:40:43.517Z,9.66
2019-01-19T10:43:13.029Z,9.47
2019-01-19T10:45:42.534Z,9.31
2019-01-19T10:48:12.065Z,9.12
2019-01-19T10:50:41.578Z,8.86
2019-01-19T10:53:11.100Z,8.67
2019-01-19T10:55:40.684Z,8.55
2019-01-19T10:58:10.620Z,8.51
2019-01-19T11:00:40.130Z,8.45
2019-01-19T11:03:09.711Z,8.32
2019-01-19T11:05:39.265Z,8.14
2019-01-19T11:08:10.687Z,7.97
2019-01-19T11:10:40.450Z,7.83
2019-01-19T11:13:09.963Z,7.70
2019-01-19T11:15:39.728Z,7.56
2019-01-19T11:18:09.237Z,7.36
2019-01-19T11:20:38.749Z,7.16
2019-01-19T11:23:08.287Z,7.01
2019-01-19T11:25:37.791Z,6.91
2019-01-19T11:28:07.468Z,6.85
2019-01-19T11:30:37.021Z,6.71
2019-01-19T11:33:06.602Z,6.54
2019-01-19T11:35:36.111Z,6.38
2019-01-19T11:38:11.804Z,6.23
2019-01-19T11:40:38.385Z,6.09
2019-01-19T11:43:09.141Z,5.91
2019-01-19T11:45:38.735Z,5.79
2019-01-19T11:48:08.319Z,5.64
2019-01-19T11:50:37.852Z,5.49
2019-01-19T11:53:07.366Z,5.38
2019-01-19T11:55:36.956Z,5.30
2019-01-19T11:58:06.725Z,5.22
2019-01-19T12:00:39.039Z,5.18
2019-01-19T12:03:09.099Z,5.12
2019-01-19T12:05:39.781Z,5.09
2019-01-19T12:08:10.107Z,5.00
2019-01-19T12:10:39.625Z,4.95
2019-01-19T12:13:09.220Z,4.92
2019-01-19T12:15:38.806Z,4.85
2019-01-19T12:18:08.592Z,4.80
2019-01-19T12:20:43.545Z,4.76
2019-01-19T12:23:13.063Z,4.73
2019-01-19T12:25:42.824Z,4.71
2019-01-19T12:28:12.347Z,4.68
2019-01-19T12:30:42.003Z,4.65
2019-01-19T12:33:11.587Z,4.61
2019-01-19T12:35:41.118Z,4.63
2019-01-19T12:38:10.630Z,4.63
2019-01-19T12:40:40.214Z,4.63
2019-01-19T12:43:14.321Z,4.63
2019-01-19T12:45:52.897Z,4.65
2019-01-19T12:48:22.926Z,4.65
2019-01-19T12:50:52.493Z,4.65
2019-01-19T12:53:22.689Z,4.64
2019-01-19T12:55:52.213Z,4.65
2019-01-19T12:58:21.799Z,4.66
2019-01-19T13:00:51.326Z,4.63
2019-01-19T13:03:20.835Z,4.59
2019-01-19T13:06:16.106Z,4.55
2019-01-19T13:08:45.856Z,4.55
2019-01-19T13:11:29.006Z,4.59
2019-01-19T13:14:03.259Z,4.62
2019-01-19T13:16:58.189Z,4.65
2019-01-19T13:19:41.436Z,4.71
2019-01-19T13:22:24.457Z,4.80
2019-01-19T13:25:13.717Z,4.87
2019-01-19T13:28:07.363Z,4.88
2019-01-19T13:31:08.109Z,4.88
2019-01-19T13:34:17.443Z,4.78
2019-01-19T13:36:51.657Z,4.69
2019-01-19T13:39:40.022Z,4.61
2019-01-19T13:42:25.547Z,4.55
2019-01-19T13:45:11.270Z,4.50
2019-01-19T13:48:11.999Z,4.47
2019-01-19T13:50:54.525Z,4.40
2019-01-19T13:53:55.286Z,4.37
2019-01-19T13:56:40.810Z,4.35
2019-01-19T13:59:31.551Z,4.30
2019-01-19T14:02:36.299Z,4.29
2019-01-19T14:05:41.050Z,4.30
2019-01-19T14:08:37.645Z,4.27
2019-01-19T14:11:14.618Z,4.27
2019-01-19T14:14:40.584Z,4.26
2019-01-19T14:17:29.026Z,4.25
2019-01-19T14:20:11.767Z,4.27
2019-01-19T14:23:03.188Z,4.21
2019-01-19T14:25:49.434Z,4.17
2019-01-19T14:28:35.589Z,4.10
2019-01-19T14:31:49.486Z,4.01
2019-01-19T14:34:23.721Z,3.94
2019-01-19T14:37:17.350Z,3.87
2019-01-19T14:40:03.307Z,3.79
2019-01-19T14:42:52.402Z,3.73
2019-01-19T14:45:50.690Z,3.63
2019-01-19T14:48:30.541Z,3.52
2019-01-19T14:51:28.941Z,3.42
2019-01-19T14:54:21.537Z,3.31
2019-01-19T14:57:19.351Z,3.17
2019-01-19T15:00:18.958Z,3.04
2019-01-19T15:02:58.745Z,2.90
2019-01-19T15:05:38.434Z,2.73
2019-01-19T15:08:15.511Z,2.60
2019-01-19T15:11:01.753Z,2.46
2019-01-19T15:13:47.907Z,2.33
2019-01-19T15:17:00.139Z,2.22
2019-01-19T15:19:56.903Z,2.09
2019-01-19T15:22:54.634Z,1.94
2019-01-19T15:25:54.200Z,1.85
2019-01-19T15:28:46.536Z,1.76
2019-01-19T15:31:35.712Z,1.69
2019-01-19T15:34:29.141Z,1.66
2019-01-19T15:37:24.561Z,1.59
2019-01-19T15:40:01.625Z,1.50
2019-01-19T15:42:47.482Z,1.43
2019-01-19T15:45:33.388Z,1.34
2019-01-19T15:48:19.177Z,1.26
2019-01-19T15:51:11.437Z,1.22
2019-01-19T15:54:16.081Z,1.20
2019-01-19T15:57:17.590Z,1.17
2019-01-19T16:00:11.140Z,1.16
2019-01-19T16:02:45.760Z,1.14
2019-01-19T16:05:31.188Z,1.15
2019-01-19T16:08:26.484Z,1.17
2019-01-19T16:11:24.337Z,1.19
2019-01-19T16:14:18.015Z,1.20
2019-01-19T16:17:00.535Z,1.18
2019-01-19T16:19:50.034Z,1.13
2019-01-19T16:22:33.267Z,1.10
2019-01-19T16:25:34.447Z,1.07
2019-01-19T16:28:17.416Z,1.04
2019-01-19T16:31:19.568Z,1.02
2019-01-19T16:34:02.412Z,1.02
2019-01-19T16:36:39.292Z,1.03
2019-01-19T16:39:28.167Z,1.06
2019-01-19T16:42:11.580Z,1.10
2019-01-19T16:45:26.947Z,1.15
2019-01-19T16:48:04.018Z,1.20
2019-01-19T16:50:44.950Z,1.25
2019-01-19T16:53:34.245Z,1.30
2019-01-19T16:56:33.808Z,1.31
2019-01-19T16:59:39.666Z,1.33
2019-01-19T17:02:19.457Z,1.35
2019-01-19T17:04:56.373Z,1.40
2019-01-19T17:08:06.906Z,1.43
2019-01-19T17:11:03.610Z,1.42
2019-01-19T17:13:52.837Z,1.43
2019-01-19T17:16:57.531Z,1.40
2019-01-19T17:19:34.493Z,1.36
2019-01-19T17:22:19.453Z,1.28
2019-01-19T17:25:05.461Z,1.22
2019-01-19T17:28:14.667Z,1.16
2019-01-19T17:31:12.976Z,1.11
2019-01-19T17:34:05.294Z,1.01
2019-01-19T17:36:54.504Z,0.91
2019-01-19T17:39:40.593Z,0.83
2019-01-19T17:42:37.845Z,0.73
2019-01-19T17:45:26.894Z,0.70
2019-01-19T17:48:12.902Z,0.67
2019-01-19T17:51:12.786Z,0.62
2019-01-19T17:53:55.712Z,0.59
2019-01-19T17:56:41.795Z,0.61
2019-01-19T17:59:24.276Z,0.59
2019-01-19T18:02:27.596Z,0.54
2019-01-19T18:05:20.890Z,0.48
2019-01-19T18:08:22.186Z,0.45
2019-01-19T18:11:02.166Z,0.40
2019-01-19T18:13:58.593Z,0.36
2019-01-19T18:17:10.769Z,0.31
2019-01-19T18:19:56.592Z,0.28
2019-01-19T18:23:01.217Z,0.25
2019-01-19T18:26:18.244Z,0.19
2019-01-19T18:29:02.026Z,0.15
2019-01-19T18:31:54.370Z,0.11
2019-01-19T18:34:43.045Z,0.09
2019-01-19T18:37:36.669Z,0.03
2019-01-19T18:40:33.658Z,-0.01
2019-01-19T18:43:35.973Z,-0.06
2019-01-19T18:46:32.866Z,-0.12
2019-01-19T18:49:18.740Z,-0.18
2019-01-19T18:52:13.476Z,-0.20
2019-01-19T18:55:01.832Z,-0.24
2019-01-19T18:58:02.751Z,-0.24
2019-01-19T19:00:48.598Z,-0.26
2019-01-19T19:03:45.361Z,-0.30
2019-01-19T19:06:41.551Z,-0.35
2019-01-19T19:09:36.819Z,-0.39
2019-01-19T19:12:35.371Z,-0.42
2019-01-19T19:15:27.090Z,-0.46
2019-01-19T19:18:07.132Z,-0.50
2019-01-19T19:20:57.816Z,-0.54
2019-01-19T19:24:00.808Z,-0.59
2019-01-19T19:26:52.788Z,-0.61
2019-01-19T19:29:45.016Z,-0.68
2019-01-19T19:32:43.162Z,-0.73
2019-01-19T19:35:38.691Z,-0.73
2019-01-19T19:38:50.440Z,-0.73
2019-01-19T19:41:59.175Z,-0.75
2019-01-19T19:44:44.417Z,-0.79
2019-01-19T19:47:39.734Z,-0.85
2019-01-19T19:50:39.955Z,-0.84
2019-01-19T19:53:09.642Z,-0.83
2019-01-19T19:55:37.577Z,-0.85
2019-01-19T19:58:07.170Z,-0.91
2019-01-19T20:00:36.778Z,-0.95
2019-01-19T20:03:06.736Z,-0.94
2019-01-19T20:05:36.329Z,-0.94
2019-01-19T20:08:05.946Z,-0.96
2019-01-19T20:10:35.473Z,-1.00
2019-01-19T20:13:05.200Z,-1.01
2019-01-19T20:15:34.739Z,-1.03
2019-01-19T20:18:04.404Z,-1.05
2019-01-19T20:20:33.924Z,-1.04
2019-01-19T20:23:03.484Z,-1.02
2019-01-19T20:25:33.016Z,-1.03
2019-01-19T20:28:02.540Z,-1.02
2019-01-19T20:30:32.217Z,-1.06
2019-01-19T20:33:01.734Z,-1.07
2019-01-19T20:35:31.251Z,-1.08
2019-01-19T20:38:00.788Z,-1.12
2019-01-19T20:40:30.305Z,-1.15
2019-01-19T20:42:59.832Z,-1.13
2019-01-19T20:45:29.387Z,-1.13
2019-01-19T20:47:58.904Z,-1.13
2019-01-19T20:50:28.430Z,-1.11
2019-01-19T20:52:57.970Z,-1.14
2019-01-19T20:55:27.491Z,-1.18
2019-01-19T20:57:57.095Z,-1.23
2019-01-19T21:00:26.742Z,-1.20
2019-01-19T21:02:56.277Z,-1.18
2019-01-19T21:05:25.802Z,-1.18
2019-01-19T21:07:55.385Z,-1.19
2019-01-19T21:10:31.552Z,-1.19
2019-01-19T21:12:56.171Z,-1.21
2019-01-19T21:15:25.719Z,-1.21
2019-01-19T21:17:55.820Z,-1.24
2019-01-19T21:20:25.540Z,-1.27
2019-01-19T21:22:55.086Z,-1.30
2019-01-19T21:25:24.620Z,-1.33
2019-01-19T21:27:54.139Z,-1.38
2019-01-19T21:30:23.682Z,-1.37
2019-01-19T21:32:53.209Z,-1.37
2019-01-19T21:35:22.734Z,-1.39
2019-01-19T21:37:52.498Z,-1.42
2019-01-19T21:40:22.021Z,-1.45
2019-01-19T21:42:51.575Z,-1.46
2019-01-19T21:45:22.597Z,-1.47
2019-01-19T21:47:52.127Z,-1.52
2019-01-19T21:50:21.665Z,-1.54
2019-01-19T21:52:51.219Z,-1.58
2019-01-19T21:55:20.798Z,-1.61
2019-01-19T21:57:50.332Z,-1.64
2019-01-19T22:00:22.025Z,-1.65
2019-01-19T22:02:51.556Z,-1.66
2019-01-19T22:05:21.265Z,-1.67
2019-01-19T22:07:50.805Z,-1.70
2019-01-19T22:10:23.097Z,-1.76
2019-01-19T22:12:52.620Z,-1.77
2019-01-19T22:15:22.233Z,-1.77
2019-01-19T22:17:51.759Z,-1.75
2019-01-19T22:20:21.278Z,-1.73
2019-01-19T22:22:50.911Z,-1.70
2019-01-19T22:25:20.431Z,-1.67
2019-01-19T22:27:50.219Z,-1.69
2019-01-19T22:30:26.484Z,-1.67
2019-01-19T22:32:56.281Z,-1.68
2019-01-19T22:35:27.705Z,-1.71
2019-01-19T22:37:57.674Z,-1.72
2019-01-19T22:40:27.194Z,-1.72
2019-01-19T22:42:56.951Z,-1.73
2019-01-19T22:45:26.499Z,-1.78
2019-01-19T22:47:56.029Z,-1.81
2019-01-19T22:50:25.557Z,-1.86
2019-01-19T22:52:55.219Z,-1.88
2019-01-19T22:55:24.746Z,-1.90
2019-01-19T22:57:54.443Z,-1.95
2019-01-19T23:00:59.777Z,-1.98
2019-01-19T23:03:31.920Z,-1.98
2019-01-19T23:06:01.499Z,-2.00
2019-01-19T23:08:31.066Z,-2.00
2019-01-19T23:11:01.318Z,-2.01
2019-01-19T23:13:30.993Z,-2.01
2019-01-19T23:16:00.625Z,-2.03
2019-01-19T23:18:30.142Z,-2.05
2019-01-19T23:20:59.666Z,-2.05
2019-01-19T23:23:29.564Z,-2.07
2019-01-19T23:26:00.725Z,-2.06
2019-01-19T23:28:30.244Z,-2.04
2019-01-19T23:31:00.000Z,-2.07
2019-01-19T23:33:29.522Z,-2.13
2019-01-19T23:35:59.040Z,-2.16
2019-01-19T23:38:28.990Z,-2.15
2019-01-19T23:40:58.520Z,-2.14
2019-01-19T23:43:28.053Z,-2.14
2019-01-19T23:45:57.589Z,-2.14
2019-01-19T23:48:27.146Z,-2.14
2019-01-19T23:50:56.664Z,-2.18
2019-01-19T23:53:26.229Z,-2.19
2019-01-19T23:55:55.778Z,-2.22
2019-01-19T23:58:25.317Z,-2.23
